Time;durP1;ratioP1;P1;durP2;ratioP2;P2;SDS_P1;SDS_P2;PMS_P1;PMS_P2;Temp;Humidity;BMP_temperature;BMP_pressure;BME280_temperature;BME280_humidity;BME280_pressure;Samples;Min_cycle;Max_cycle;Signal;HPM_P1;HPM_P2
2020/12/13 00:02:15;;;;;;;7.97;2.78;;;8.00;94.90;;;;;;5088177;28;20421;-84
2020/12/13 00:04:41;;;;;;;15.52;4.82;;;8.10;94.90;;;;;;5087896;28;20047;-83
2020/12/13 00:07:07;;;;;;;7.90;2.17;;;8.10;94.80;;;;;;5087000;28;20039;-84
2020/12/13 00:09:33;;;;;;;11.30;2.17;;;8.20;94.80;;;;;;5093800;28;20431;-84
2020/12/13 00:12:04;;;;;;;8.18;1.63;;;8.20;94.70;;;;;;5094119;28;20048;-84
2020/12/13 00:14:30;;;;;;;9.98;1.85;;;8.20;94.60;;;;;;5094013;28;20032;-84
2020/12/13 00:16:56;;;;;;;12.50;2.10;;;8.30;94.60;;;;;;5093927;28;20123;-79
2020/12/13 00:19:22;;;;;;;9.07;1.45;;;8.30;94.60;;;;;;5094390;28;20035;-84
2020/12/13 00:21:54;;;;;;;13.05;2.22;;;8.30;94.60;;;;;;5094002;28;20165;-84
2020/12/13 00:24:20;;;;;;;8.23;1.80;;;8.30;94.70;;;;;;5094328;28;20027;-83
2020/12/13 00:26:46;;;;;;;9.60;1.63;;;8.30;94.70;;;;;;5077576;28;20024;-84
2020/12/13 00:29:13;;;;;;;12.07;1.38;;;8.30;94.80;;;;;;5093826;28;20016;-84
2020/12/13 00:31:39;;;;;;;6.60;1.42;;;8.30;94.80;;;;;;5094129;28;20094;-84
2020/12/13 00:34:07;;;;;;;7.65;1.38;;;8.30;94.80;;;;;;5079414;28;20051;-83
2020/12/13 00:36:33;;;;;;;8.88;1.38;;;8.30;94.80;;;;;;5095292;28;20035;-84
2020/12/13 00:38:59;;;;;;;9.30;1.33;;;8.40;94.80;;;;;;5078781;28;20514;-84
2020/12/13 00:41:25;;;;;;;7.50;1.30;;;8.40;94.80;;;;;;5097264;28;20032;-84
2020/12/13 00:43:50;;;;;;;7.75;1.40;;;8.40;94.80;;;;;;5096493;28;20050;-83
2020/12/13 00:46:16;;;;;;;7.40;1.42;;;8.40;94.90;;;;;;5079153;28;20077;-83
2020/12/13 00:48:42;;;;;;;6.13;1.80;;;8.40;95.00;;;;;;5079300;28;20119;-84
2020/12/13 00:51:07;;;;;;;6.30;0.93;;;8.40;95.00;;;;;;5078912;28;20028;-83
2020/12/13 00:53:33;;;;;;;8.15;1.20;;;8.30;95.10;;;;;;5096007;28;20054;-84
2020/12/13 00:55:59;;;;;;;23.65;2.80;;;8.20;95.20;;;;;;5097172;28;20034;-86
2020/12/13 00:58:24;;;;;;;14.75;1.40;;;8.10;95.40;;;;;;5081070;28;20290;-85
2020/12/13 01:00:50;;;;;;;11.82;2.15;;;8.00;95.70;;;;;;5079613;28;20032;-85
2020/12/13 01:03:16;;;;;;;11.75;2.42;;;7.80;96.10;;;;;;5098538;28;20032;-83
2020/12/13 01:05:42;;;;;;;19.75;2.47;;;7.70;96.60;;;;;;5082179;28;20464;-84
2020/12/13 01:08:08;;;;;;;10.30;1.70;;;7.60;96.80;;;;;;5098211;28;20078;-83
2020/12/13 01:10:34;;;;;;;11.10;1.10;;;7.50;97.10;;;;;;5099563;28;20519;-84
2020/12/13 01:13:00;;;;;;;10.00;1.80;;;7.40;97.30;;;;;;5097821;28;20027;-84
2020/12/13 01:15:25;;;;;;;5.80;0.98;;;7.40;97.50;;;;;;5096209;28;20034;-84
2020/12/13 01:17:53;;;;;;;16.10;1.15;;;7.30;97.80;;;;;;5079503;28;20546;-84
2020/12/13 01:20:20;;;;;;;11.55;1.48;;;7.30;98.00;;;;;;5093923;28;20550;-84
2020/12/13 01:22:45;;;;;;;9.20;1.00;;;7.30;98.20;;;;;;5092614;28;20480;-83
2020/12/13 01:25:11;;;;;;;9.95;1.08;;;7.30;98.30;;;;;;5093501;28;20074;-84
2020/12/13 01:27:37;;;;;;;5.40;0.82;;;7.30;98.30;;;;;;5075082;28;20035;-84
2020/12/13 01:30:08;;;;;;;8.00;1.35;;;7.30;98.40;;;;;;5092015;28;20032;-84
2020/12/13 01:32:41;;;;;;;7.28;1.38;;;7.30;98.50;;;;;;5091041;28;20359;-84
2020/12/13 01:35:08;;;;;;;6.05;1.08;;;7.20;98.70;;;;;;5091042;28;20031;-85
2020/12/13 01:37:35;;;;;;;11.00;1.20;;;7.20;98.80;;;;;;5090278;28;20028;-84
2020/12/13 01:40:01;;;;;;;10.80;2.33;;;7.20;99.00;;;;;;5090598;28;20383;-84
2020/12/13 01:42:26;;;;;;;14.10;1.40;;;7.20;99.00;;;;;;5091421;28;20036;-84
2020/12/13 01:44:52;;;;;;;9.02;1.15;;;7.30;99.10;;;;;;5092114;28;20386;-84
2020/12/13 01:47:18;;;;;;;10.43;1.33;;;7.30;99.20;;;;;;5091251;28;20039;-84
2020/12/13 01:49:47;;;;;;;9.07;1.00;;;7.30;99.20;;;;;;5092240;28;20521;-84
2020/12/13 01:55:06;;;;;;;8.88;1.80;;;7.40;99.50;;;;;;5094020;28;20538;-84
2020/12/13 01:57:40;;;;;;;4.80;1.25;;;7.40;99.50;;;;;;5092967;28;20173;-84
2020/12/13 02:00:12;;;;;;;7.90;2.00;;;7.40;99.60;;;;;;5092220;28;20021;-84
2020/12/13 02:02:59;;;;;;;10.20;1.05;;;7.40;99.70;;;;;;5092502;28;20031;-84
2020/12/13 02:05:25;;;;;;;7.45;1.30;;;7.40;99.90;;;;;;5090290;28;20496;-84
2020/12/13 02:07:55;;;;;;;8.30;1.48;;;7.50;99.90;;;;;;5092365;28;20028;-84
2020/12/13 02:10:20;;;;;;;6.82;0.95;;;7.50;99.90;;;;;;5093840;28;20481;-85
2020/12/13 02:12:46;;;;;;;7.93;1.10;;;7.60;99.90;;;;;;5091136;28;20052;-84
2020/12/13 02:15:12;;;;;;;8.23;0.98;;;7.60;99.90;;;;;;5090775;28;20577;-84
2020/12/13 02:17:38;;;;;;;5.15;0.77;;;7.60;99.90;;;;;;5092834;28;20067;-85
2020/12/13 02:20:12;;;;;;;8.38;0.80;;;7.60;99.90;;;;;;5091534;28;20130;-85
2020/12/13 02:22:39;;;;;;;5.30;1.05;;;7.70;99.90;;;;;;5090804;28;20042;-85
2020/12/13 02:25:09;;;;;;;3.45;0.60;;;7.70;99.90;;;;;;5091774;28;20092;-85
2020/12/13 02:27:35;;;;;;;9.77;1.23;;;7.80;99.90;;;;;;5091858;28;20028;-85
2020/12/13 02:30:01;;;;;;;6.85;0.70;;;7.80;99.90;;;;;;5090592;28;20070;-84
2020/12/13 02:32:27;;;;;;;6.85;1.17;;;7.80;99.90;;;;;;5089421;28;20028;-85
2020/12/13 02:34:52;;;;;;;12.73;2.28;;;7.90;99.90;;;;;;5091910;28;20058;-85
2020/12/13 02:37:18;;;;;;;7.63;1.05;;;7.90;99.90;;;;;;5091121;28;20031;-84
2020/12/13 02:39:44;;;;;;;7.57;0.90;;;7.90;99.90;;;;;;5093076;28;20425;-85
2020/12/13 02:42:09;;;;;;;8.65;0.95;;;7.90;99.90;;;;;;5091929;28;20055;-85
2020/12/13 02:44:35;;;;;;;11.02;1.02;;;7.90;99.90;;;;;;5091990;28;20122;-85
2020/12/13 02:47:01;;;;;;;8.90;0.90;;;8.00;99.90;;;;;;5091966;28;20043;-85
2020/12/13 02:49:26;;;;;;;11.95;1.23;;;8.00;99.90;;;;;;5091519;28;20040;-85
2020/12/13 02:51:52;;;;;;;9.75;1.20;;;8.00;99.90;;;;;;5091303;28;20066;-84
2020/12/13 02:54:18;;;;;;;10.93;1.23;;;8.00;99.90;;;;;;5092569;28;20036;-85
2020/12/13 02:56:44;;;;;;;6.38;0.98;;;8.00;99.90;;;;;;5092331;28;20032;-85
2020/12/13 02:59:09;;;;;;;7.53;1.02;;;8.00;99.90;;;;;;5092973;28;20028;-85
2020/12/13 03:01:35;;;;;;;4.82;1.00;;;8.00;99.90;;;;;;5091542;28;20059;-84
2020/12/13 03:04:01;;;;;;;3.90;0.50;;;8.10;99.90;;;;;;5091325;28;20039;-85
2020/12/13 03:06:27;;;;;;;4.82;0.52;;;8.10;99.90;;;;;;5074101;28;20039;-85
2020/12/13 03:08:52;;;;;;;11.45;0.80;;;8.10;99.90;;;;;;5089967;28;20030;-85
2020/12/13 03:11:20;;;;;;;9.40;1.30;;;8.10;99.90;;;;;;5088639;28;20048;-85
2020/12/13 03:13:48;;;;;;;5.30;0.70;;;8.10;99.90;;;;;;5090413;28;20035;-85
2020/12/13 03:16:14;;;;;;;5.38;1.75;;;8.10;99.90;;;;;;5092920;28;20086;-85
2020/12/13 03:18:39;;;;;;;2.80;0.30;;;8.10;99.90;;;;;;5093842;28;20032;-86
2020/12/13 03:21:05;;;;;;;3.25;0.40;;;8.20;99.90;;;;;;5092754;28;20078;-86
2020/12/13 03:23:31;;;;;;;3.75;0.20;;;8.20;99.90;;;;;;5077323;28;20109;-85
2020/12/13 03:25:56;;;;;;;2.42;0.47;;;8.20;99.90;;;;;;5094135;28;20119;-86
2020/12/13 03:28:22;;;;;;;0.60;0.10;;;8.30;99.90;;;;;;5095570;28;20016;-85
2020/12/13 03:30:48;;;;;;;0.75;0.17;;;8.30;99.90;;;;;;5094802;28;20079;-85
2020/12/13 03:33:13;;;;;;;0.80;0.13;;;8.30;99.90;;;;;;5094922;28;20085;-85
2020/12/13 03:35:39;;;;;;;0.52;0.20;;;8.40;99.90;;;;;;5093716;28;20028;-85
2020/12/13 03:38:05;;;;;;;1.13;0.45;;;8.40;99.90;;;;;;5089957;28;20024;-85
2020/12/13 03:40:30;;;;;;;1.85;0.57;;;8.40;99.90;;;;;;5092172;28;20631;-85
2020/12/13 03:42:56;;;;;;;0.65;0.00;;;8.40;99.90;;;;;;5091288;28;20409;-85
2020/12/13 03:45:21;;;;;;;2.38;0.20;;;8.40;99.90;;;;;;5089236;28;20024;-85
2020/12/13 03:47:47;;;;;;;0.32;0.10;;;8.40;99.90;;;;;;5089646;28;20036;-84
2020/12/13 03:50:13;;;;;;;2.55;0.40;;;8.40;99.90;;;;;;5089599;28;20470;-85
2020/12/13 03:52:38;;;;;;;0.80;0.10;;;8.40;99.90;;;;;;5088510;28;20035;-85
2020/12/13 03:55:04;;;;;;;0.13;0.08;;;8.40;99.90;;;;;;5088674;28;20028;-85
2020/12/13 03:57:30;;;;;;;4.03;0.40;;;8.40;99.90;;;;;;5087899;28;20363;-85
2020/12/13 03:59:55;;;;;;;4.25;0.15;;;8.40;99.90;;;;;;5087556;28;20028;-84
2020/12/13 04:02:21;;;;;;;1.75;0.20;;;8.40;99.90;;;;;;5087978;28;20086;-86
2020/12/13 04:04:47;;;;;;;3.40;0.28;;;8.40;99.90;;;;;;5087793;28;20028;-85
2020/12/13 04:07:12;;;;;;;2.13;0.30;;;8.40;99.90;;;;;;5070808;28;20032;-85
2020/12/13 04:09:38;;;;;;;0.85;0.32;;;8.40;99.90;;;;;;5087739;28;20076;-86
2020/12/13 04:12:04;;;;;;;1.45;0.20;;;8.40;99.90;;;;;;5087389;28;20127;-85
2020/12/13 04:14:30;;;;;;;2.55;0.35;;;8.40;99.90;;;;;;5070839;28;20024;-85
2020/12/13 04:16:55;;;;;;;0.43;0.20;;;8.40;99.90;;;;;;5087815;28;20025;-85
2020/12/13 04:19:21;;;;;;;0.60;0.10;;;8.50;99.90;;;;;;5088615;28;20123;-85
2020/12/13 04:21:47;;;;;;;0.70;0.10;;;8.40;99.90;;;;;;5071384;28;20059;-86
2020/12/13 04:24:13;;;;;;;2.38;0.47;;;8.50;99.90;;;;;;5088486;28;20024;-86
2020/12/13 04:26:38;;;;;;;1.25;0.10;;;8.50;99.90;;;;;;5088120;28;20039;-85
2020/12/13 04:29:04;;;;;;;2.25;0.20;;;8.50;99.90;;;;;;5088013;28;20561;-85
2020/12/13 04:31:30;;;;;;;0.03;0.03;;;8.50;99.90;;;;;;5071009;28;20467;-85
2020/12/13 04:33:55;;;;;;;0.15;0.10;;;8.60;99.90;;;;;;5071284;28;20058;-85
2020/12/13 04:36:21;;;;;;;0.65;0.10;;;8.60;99.90;;;;;;5087974;28;20546;-86
2020/12/13 04:38:47;;;;;;;0.82;0.10;;;8.60;99.90;;;;;;5087344;28;20507;-85
2020/12/13 04:41:13;;;;;;;0.00;0.00;;;8.60;99.90;;;;;;5087467;28;20122;-86
2020/12/13 04:43:40;;;;;;;0.00;0.00;;;8.60;99.90;;;;;;5087543;28;20033;-86
2020/12/13 04:46:07;;;;;;;1.30;0.08;;;8.70;99.90;;;;;;5087956;28;20371;-85
2020/12/13 04:48:34;;;;;;;0.15;0.10;;;8.80;99.90;;;;;;5071729;28;20130;-86
2020/12/13 04:51:00;;;;;;;0.80;0.00;;;8.80;99.90;;;;;;5070967;28;20052;-85
2020/12/13 04:53:32;;;;;;;0.30;0.10;;;8.80;99.90;;;;;;5088529;28;20024;-86
2020/12/13 04:55:59;;;;;;;0.00;0.00;;;8.80;99.90;;;;;;5091001;28;20027;-85
2020/12/13 04:58:28;;;;;;;0.00;0.00;;;8.90;99.90;;;;;;5092351;28;20032;-86
2020/12/13 05:00:56;;;;;;;0.03;0.00;;;8.90;99.90;;;;;;5091764;28;20575;-85
2020/12/13 05:03:24;;;;;;;6.95;0.47;;;8.90;99.90;;;;;;5092378;28;20394;-85
2020/12/13 05:05:50;;;;;;;9.85;0.50;;;8.90;99.90;;;;;;5075952;28;20392;-85
2020/12/13 05:08:16;;;;;;;17.08;0.93;;;8.90;99.90;;;;;;5091945;28;20520;-86
2020/12/13 05:10:41;;;;;;;0.00;0.00;;;8.90;99.90;;;;;;5090832;28;20051;-86
2020/12/13 05:13:09;;;;;;;0.80;0.17;;;9.00;99.90;;;;;;5090196;28;20044;-86
2020/12/13 05:15:36;;;;;;;1.98;0.10;;;9.00;99.90;;;;;;5091448;28;20040;-86
2020/12/13 05:18:03;;;;;;;0.10;0.10;;;9.00;99.90;;;;;;5091186;28;20063;-86
2020/12/13 05:20:28;;;;;;;0.00;0.00;;;9.10;99.90;;;;;;5091308;28;20123;-86
2020/12/13 05:22:55;;;;;;;0.00;0.00;;;9.10;99.90;;;;;;5075169;28;20063;-86
2020/12/13 05:25:33;;;;;;;0.10;0.08;;;9.10;99.90;;;;;;5074437;28;20030;-86
2020/12/13 05:28:01;;;;;;;0.17;0.00;;;9.10;99.90;;;;;;5090983;28;20176;-86
2020/12/13 05:30:38;;;;;;;0.00;0.00;;;9.10;99.90;;;;;;5091830;28;20022;-86
2020/12/13 05:33:07;;;;;;;1.27;0.10;;;9.10;99.90;;;;;;5090972;28;20024;-85
2020/12/13 05:35:33;;;;;;;0.00;0.00;;;9.20;99.90;;;;;;5091146;28;20028;-86
2020/12/13 05:37:59;;;;;;;0.10;0.03;;;9.20;99.90;;;;;;5073891;28;20040;-85
2020/12/13 05:40:25;;;;;;;0.73;0.10;;;9.20;99.90;;;;;;5090942;28;20398;-86
2020/12/13 05:43:03;;;;;;;0.10;0.00;;;9.30;99.90;;;;;;5073661;28;20032;-85
2020/12/13 05:46:12;;;;;;;0.17;0.00;;;9.30;99.90;;;;;;5092676;28;20016;-86
2020/12/13 05:53:23;;;;;;;0.10;0.00;;;9.40;99.90;;;;;;5091374;28;20158;-86
2020/12/13 05:55:53;;;;;;;0.00;0.00;;;9.50;99.90;;;;;;5074063;28;20032;-86
2020/12/13 05:58:22;;;;;;;0.00;0.00;;;9.50;99.90;;;;;;5074882;28;20032;-86
2020/12/13 06:00:50;;;;;;;0.00;0.00;;;9.60;99.90;;;;;;5090007;28;20032;-86
2020/12/13 06:03:29;;;;;;;0.00;0.00;;;9.60;99.90;;;;;;5090600;28;20105;-86
2020/12/13 06:06:00;;;;;;;0.05;0.00;;;9.60;99.90;;;;;;5090187;28;20020;-86
2020/12/13 06:08:29;;;;;;;0.55;0.10;;;9.70;99.90;;;;;;5091431;28;20029;-86
2020/12/13 06:10:55;;;;;;;0.00;0.00;;;9.70;99.90;;;;;;5090827;28;20062;-85
2020/12/13 06:13:29;;;;;;;0.08;0.00;;;9.60;99.90;;;;;;5073290;28;20298;-85
2020/12/13 06:15:55;;;;;;;0.00;0.00;;;9.60;99.90;;;;;;5091845;28;20074;-87
2020/12/13 06:18:21;;;;;;;0.00;0.00;;;9.60;99.90;;;;;;5074441;28;20036;-86
2020/12/13 06:20:48;;;;;;;0.00;0.00;;;9.60;99.90;;;;;;5090242;28;20560;-86
2020/12/13 06:23:16;;;;;;;0.10;0.00;;;9.60;99.90;;;;;;5090798;28;20032;-85
2020/12/13 06:25:42;;;;;;;0.20;0.00;;;9.60;99.90;;;;;;5090697;28;20053;-85
2020/12/13 06:28:10;;;;;;;0.00;0.00;;;9.60;99.90;;;;;;5090645;28;20021;-86
2020/12/13 06:30:37;;;;;;;0.05;0.00;;;9.70;99.90;;;;;;5090427;28;20031;-86
2020/12/13 06:33:02;;;;;;;0.30;0.10;;;9.80;99.90;;;;;;5090088;28;20043;-85
2020/12/13 06:35:28;;;;;;;1.55;0.15;;;9.80;99.90;;;;;;5089101;28;20044;-86
2020/12/13 06:37:54;;;;;;;0.00;0.00;;;9.90;99.90;;;;;;5090715;28;20433;-85
2020/12/13 06:40:21;;;;;;;0.22;0.05;;;10.00;99.90;;;;;;5089846;28;20020;-87
2020/12/13 06:42:48;;;;;;;0.15;0.08;;;10.10;99.90;;;;;;5091038;28;20447;-85
2020/12/13 06:45:16;;;;;;;0.00;0.00;;;10.20;99.90;;;;;;5089277;28;20024;-86
2020/12/13 06:47:46;;;;;;;0.10;0.10;;;10.30;99.90;;;;;;5088545;28;20055;-86
2020/12/13 06:50:21;;;;;;;0.08;0.00;;;10.30;99.90;;;;;;5088797;28;20028;-86
2020/12/13 06:52:50;;;;;;;0.00;0.00;;;10.30;99.90;;;;;;5088674;28;20020;-86
2020/12/13 06:55:17;;;;;;;0.00;0.00;;;10.40;99.90;;;;;;5089243;28;20036;-86
2020/12/13 06:57:46;;;;;;;0.28;0.10;;;10.40;99.90;;;;;;5072385;28;20040;-86
2020/12/13 07:00:12;;;;;;;0.00;0.00;;;10.40;99.90;;;;;;5089217;28;20051;-86
2020/12/13 07:02:56;;;;;;;0.10;0.10;;;10.40;99.90;;;;;;5089430;28;20067;-86
2020/12/13 07:05:47;;;;;;;0.00;0.00;;;10.40;99.90;;;;;;5088568;28;20028;-86
2020/12/13 07:08:17;;;;;;;0.00;0.00;;;10.40;99.90;;;;;;5091686;28;20111;-86
2020/12/13 07:10:51;;;;;;;0.00;0.00;;;10.40;99.90;;;;;;5072911;28;20048;-85
2020/12/13 07:13:23;;;;;;;0.03;0.03;;;10.50;99.90;;;;;;5073193;28;20139;-86
2020/12/13 07:16:05;;;;;;;0.10;0.08;;;10.50;99.90;;;;;;5089187;28;20073;-86
2020/12/13 07:18:32;;;;;;;1.90;0.08;;;10.60;99.90;;;;;;5088759;28;20062;-86
2020/12/13 07:20:58;;;;;;;0.43;0.10;;;10.60;99.90;;;;;;5089870;28;20114;-86
2020/12/13 07:23:25;;;;;;;0.15;0.10;;;10.60;99.90;;;;;;5089746;28;20031;-86
2020/12/13 07:25:52;;;;;;;0.10;0.00;;;10.70;99.90;;;;;;5088815;28;20024;-86
2020/12/13 07:28:18;;;;;;;0.00;0.00;;;10.70;99.90;;;;;;5090183;28;20037;-85
2020/12/13 07:30:46;;;;;;;0.00;0.00;;;10.70;99.90;;;;;;5088831;28;20024;-87
2020/12/13 07:33:11;;;;;;;0.00;0.00;;;10.70;99.90;;;;;;5088954;28;20028;-86
2020/12/13 07:35:37;;;;;;;0.22;0.08;;;10.80;99.90;;;;;;5088404;28;20039;-87
2020/12/13 07:38:03;;;;;;;0.90;0.25;;;10.80;99.90;;;;;;5088366;28;20049;-86
2020/12/13 07:40:29;;;;;;;1.88;0.10;;;10.80;99.90;;;;;;5087764;28;20076;-86
2020/12/13 07:42:57;;;;;;;0.00;0.00;;;10.80;99.90;;;;;;5088017;28;20024;-86
2020/12/13 07:45:23;;;;;;;1.10;0.28;;;10.80;99.90;;;;;;5070616;28;20028;-86
2020/12/13 07:48:02;;;;;;;0.30;0.30;;;10.80;99.90;;;;;;5087312;28;20506;-86
2020/12/13 07:50:48;;;;;;;0.40;0.22;;;10.80;99.90;;;;;;5071735;28;20035;-84
2020/12/13 07:53:24;;;;;;;0.85;0.20;;;10.80;99.90;;;;;;5087296;28;20094;-86
2020/12/13 07:55:50;;;;;;;0.15;0.10;;;10.80;99.90;;;;;;5088446;28;20080;-86
2020/12/13 07:58:19;;;;;;;0.75;0.10;;;10.80;99.90;;;;;;5070841;28;20491;-86
2020/12/13 08:00:46;;;;;;;0.20;0.10;;;10.90;99.90;;;;;;5087414;28;20039;-86
2020/12/13 08:03:12;;;;;;;2.20;0.20;;;10.90;99.90;;;;;;5088075;28;20520;-86
2020/12/13 08:05:41;;;;;;;4.57;0.20;;;11.00;99.90;;;;;;5088396;28;20050;-86
2020/12/13 08:08:07;;;;;;;1.00;0.20;;;11.00;99.90;;;;;;5088173;28;20114;-86
2020/12/13 08:10:33;;;;;;;4.00;0.35;;;11.00;99.90;;;;;;5087427;28;20535;-86
2020/12/13 08:12:59;;;;;;;0.20;0.10;;;11.10;99.90;;;;;;5087393;28;20052;-86
2020/12/13 08:15:25;;;;;;;1.95;0.10;;;11.10;99.90;;;;;;5070697;28;20028;-86
2020/12/13 08:18:03;;;;;;;1.30;0.10;;;11.10;99.90;;;;;;5088057;28;20405;-84
2020/12/13 08:20:31;;;;;;;1.25;0.10;;;11.20;99.90;;;;;;5087367;28;20024;-84
2020/12/13 08:22:59;;;;;;;2.25;0.10;;;11.20;99.90;;;;;;5087465;28;20438;-84
2020/12/13 08:25:25;;;;;;;0.20;0.13;;;11.20;99.90;;;;;;5087789;28;20029;-86
2020/12/13 08:27:51;;;;;;;1.10;0.17;;;11.20;99.90;;;;;;5088628;28;20029;-85
2020/12/13 08:30:18;;;;;;;0.63;0.20;;;11.30;99.90;;;;;;5073836;28;20497;-85
2020/12/13 08:32:44;;;;;;;0.70;0.10;;;11.30;99.90;;;;;;5091268;28;20430;-86
2020/12/13 08:35:18;;;;;;;0.00;0.00;;;11.30;99.90;;;;;;5091401;28;20127;-85
2020/12/13 08:37:58;;;;;;;4.63;1.00;;;11.30;99.90;;;;;;5091932;28;20020;-86
2020/12/13 08:40:39;;;;;;;0.32;0.10;;;11.30;99.90;;;;;;5091419;28;20031;-86
2020/12/13 08:43:05;;;;;;;0.30;0.10;;;11.30;99.90;;;;;;5091349;28;20437;-85
2020/12/13 08:45:31;;;;;;;0.13;0.00;;;11.30;99.90;;;;;;5091114;28;20048;-85
2020/12/13 08:48:02;;;;;;;0.55;0.10;;;11.30;99.90;;;;;;5091328;28;20081;-86
2020/12/13 08:50:39;;;;;;;0.43;0.08;;;11.40;99.90;;;;;;5091170;28;20475;-85
2020/12/13 08:53:19;;;;;;;0.00;0.00;;;11.40;99.90;;;;;;5090855;28;20035;-85
2020/12/13 08:55:57;;;;;;;0.40;0.10;;;11.40;99.90;;;;;;5091852;28;20023;-85
2020/12/13 08:58:23;;;;;;;1.38;0.10;;;11.40;99.90;;;;;;5090994;28;20059;-86
2020/12/13 09:00:49;;;;;;;0.15;0.08;;;11.40;99.90;;;;;;5073821;28;20031;-86
2020/12/13 09:03:28;;;;;;;0.20;0.10;;;11.50;99.90;;;;;;5090557;28;20052;-87
2020/12/13 09:05:54;;;;;;;0.73;0.10;;;11.50;99.90;;;;;;5090780;28;20024;-86
2020/12/13 09:08:23;;;;;;;0.25;0.10;;;11.50;99.90;;;;;;5090840;28;20361;-86
2020/12/13 09:10:51;;;;;;;0.30;0.10;;;11.60;99.90;;;;;;5090484;28;20478;-86
2020/12/13 09:13:18;;;;;;;0.75;0.13;;;11.60;99.90;;;;;;5090610;28;20131;-85
2020/12/13 09:15:43;;;;;;;0.20;0.10;;;11.60;99.90;;;;;;5090548;28;20487;-86
2020/12/13 09:18:10;;;;;;;0.50;0.25;;;11.60;99.90;;;;;;5090352;28;20047;-86
2020/12/13 09:20:37;;;;;;;1.33;0.73;;;11.70;99.90;;;;;;5090624;28;20028;-86
2020/12/13 09:23:18;;;;;;;3.10;1.48;;;11.70;99.90;;;;;;5090443;28;20086;-86
2020/12/13 09:25:46;;;;;;;0.47;0.28;;;11.70;99.90;;;;;;5091067;28;20388;-86
2020/12/13 09:28:14;;;;;;;2.17;0.40;;;11.70;99.90;;;;;;5090578;28;20493;-86
2020/12/13 09:30:41;;;;;;;0.73;0.20;;;11.70;99.90;;;;;;5090279;28;20527;-86
2020/12/13 09:33:08;;;;;;;0.55;0.30;;;11.70;99.90;;;;;;5073220;28;20344;-86
2020/12/13 09:35:34;;;;;;;0.47;0.40;;;11.70;99.90;;;;;;5091892;28;20048;-86
2020/12/13 09:38:08;;;;;;;2.53;0.75;;;11.70;99.90;;;;;;5090767;28;20044;-86
2020/12/13 09:40:34;;;;;;;4.40;0.90;;;11.60;99.90;;;;;;5090329;28;20027;-85
2020/12/13 09:43:00;;;;;;;1.10;0.65;;;11.60;99.90;;;;;;5091219;28;20033;-85
2020/12/13 09:45:26;;;;;;;1.95;1.30;;;11.60;99.90;;;;;;5091888;28;20513;-85
2020/12/13 09:47:58;;;;;;;26.55;15.73;;;11.50;99.90;;;;;;5089934;28;20124;-84
2020/12/13 09:50:26;;;;;;;5.90;1.95;;;11.50;99.90;;;;;;5090160;28;20379;-86
2020/12/13 09:52:52;;;;;;;6.25;1.83;;;11.40;99.90;;;;;;5090122;28;20028;-85
2020/12/13 09:55:18;;;;;;;6.13;3.50;;;11.40;99.90;;;;;;5091289;28;20027;-86
2020/12/13 09:57:44;;;;;;;5.57;2.58;;;11.40;99.90;;;;;;5090275;28;20024;-85
2020/12/13 10:00:10;;;;;;;10.82;7.47;;;11.40;99.90;;;;;;5090376;28;20036;-85
2020/12/13 10:02:36;;;;;;;14.52;3.15;;;11.40;99.90;;;;;;5089801;28;20035;-85
2020/12/13 10:05:04;;;;;;;5.57;2.95;;;11.40;99.90;;;;;;5089973;28;20032;-85
2020/12/13 10:10:14;;;;;;;5.90;2.80;;;11.50;99.90;;;;;;5090675;28;20434;-86
2020/12/13 10:12:39;;;;;;;2.45;1.75;;;11.50;99.90;;;;;;5089624;28;20050;-86
2020/12/13 10:15:05;;;;;;;7.35;2.42;;;11.50;99.90;;;;;;5089338;28;20036;-86
2020/12/13 10:17:31;;;;;;;4.90;2.72;;;11.50;99.90;;;;;;5089355;28;20086;-85
2020/12/13 10:19:57;;;;;;;6.20;2.72;;;11.50;99.90;;;;;;5089810;28;20040;-86
2020/12/13 10:22:22;;;;;;;5.03;1.80;;;11.60;99.90;;;;;;5089288;28;20060;-85
2020/12/13 10:24:49;;;;;;;1.15;0.63;;;11.60;99.90;;;;;;5089215;28;20035;-84
2020/12/13 10:27:14;;;;;;;2.05;0.80;;;11.60;99.90;;;;;;5089273;28;20055;-84
2020/12/13 10:29:41;;;;;;;4.10;0.85;;;11.70;99.90;;;;;;5088816;28;20055;-84
2020/12/13 10:32:07;;;;;;;3.75;1.42;;;11.70;99.90;;;;;;5089339;28;20027;-84
2020/12/13 10:34:33;;;;;;;5.53;1.00;;;11.70;99.90;;;;;;5088491;28;20028;-84
2020/12/13 10:36:58;;;;;;;5.80;0.93;;;11.70;99.90;;;;;;5088200;28;20036;-85
2020/12/13 10:39:24;;;;;;;1.33;0.80;;;11.70;99.90;;;;;;5089050;28;20207;-84
2020/12/13 10:41:51;;;;;;;1.33;0.80;;;11.80;99.90;;;;;;5090148;28;20339;-84
2020/12/13 10:44:19;;;;;;;3.05;0.82;;;11.80;99.90;;;;;;5090287;28;20028;-84
2020/12/13 10:46:46;;;;;;;3.45;1.73;;;11.80;99.90;;;;;;5091193;28;20374;-84
2020/12/13 10:49:12;;;;;;;1.85;0.70;;;11.80;99.90;;;;;;5090851;28;20028;-84
2020/12/13 10:51:37;;;;;;;8.65;0.90;;;11.90;99.90;;;;;;5088962;28;20077;-83
2020/12/13 10:54:03;;;;;;;2.53;0.80;;;11.90;99.90;;;;;;5089447;28;20099;-83
2020/12/13 10:56:29;;;;;;;3.30;1.35;;;11.90;99.90;;;;;;5092065;28;20024;-82
2020/12/13 10:58:55;;;;;;;2.65;1.45;;;12.00;99.90;;;;;;5091491;28;20020;-83
2020/12/13 11:01:20;;;;;;;3.08;0.90;;;12.10;99.90;;;;;;5074654;28;20032;-85
2020/12/13 11:03:46;;;;;;;2.40;1.35;;;12.40;99.90;;;;;;5090115;28;20111;-84
2020/12/13 11:06:11;;;;;;;1.40;0.80;;;12.60;99.90;;;;;;5090553;28;20028;-83
2020/12/13 11:08:37;;;;;;;3.33;1.38;;;12.80;99.90;;;;;;5073515;28;20020;-86
2020/12/13 11:11:03;;;;;;;2.35;1.15;;;13.10;99.90;;;;;;5089932;28;20024;-84
2020/12/13 11:13:29;;;;;;;1.00;0.65;;;13.50;99.90;;;;;;5088987;28;20048;-85
2020/12/13 11:15:55;;;;;;;0.40;0.40;;;13.80;99.90;;;;;;5088061;28;20086;-85
2020/12/13 11:18:20;;;;;;;1.00;0.30;;;14.00;99.90;;;;;;5088036;28;20063;-84
2020/12/13 11:20:46;;;;;;;1.30;0.40;;;14.00;99.90;;;;;;5088595;28;20043;-86
2020/12/13 11:23:12;;;;;;;1.10;0.40;;;14.00;99.90;;;;;;5089494;28;20046;-86
2020/12/13 11:25:38;;;;;;;0.65;0.30;;;13.80;99.90;;;;;;5088403;28;20065;-82
2020/12/13 11:28:05;;;;;;;4.03;0.57;;;13.70;99.90;;;;;;5087893;28;20047;-86
2020/12/13 11:30:32;;;;;;;1.40;0.63;;;13.50;99.90;;;;;;5087693;28;20040;-86
2020/12/13 11:32:58;;;;;;;1.80;1.00;;;13.50;99.90;;;;;;5088215;28;20497;-86
2020/12/13 11:35:24;;;;;;;1.85;1.00;;;13.40;99.90;;;;;;5087929;28;20024;-87
2020/12/13 11:37:49;;;;;;;3.70;0.82;;;13.40;99.90;;;;;;5088847;28;20099;-86
2020/12/13 11:40:15;;;;;;;3.00;1.55;;;13.50;99.90;;;;;;5086958;28;20035;-86
2020/12/13 11:42:41;;;;;;;6.18;2.20;;;13.50;99.90;;;;;;5088614;28;20553;-86
2020/12/13 11:45:08;;;;;;;2.05;0.30;;;13.50;99.90;;;;;;5087163;28;20152;-85
2020/12/13 11:47:34;;;;;;;0.90;0.50;;;13.40;99.90;;;;;;5088715;28;20066;-85
2020/12/13 11:50:00;;;;;;;2.47;0.20;;;13.30;99.90;;;;;;5087640;28;20028;-85
2020/12/13 11:52:26;;;;;;;0.30;0.30;;;13.40;99.90;;;;;;5088509;28;20447;-86
2020/12/13 11:54:52;;;;;;;3.10;0.20;;;13.50;99.90;;;;;;5088566;28;20023;-84
2020/12/13 11:57:17;;;;;;;0.40;0.30;;;13.50;99.90;;;;;;5088036;28;20101;-85
2020/12/13 11:59:44;;;;;;;1.48;0.60;;;13.50;99.90;;;;;;5087103;28;20031;-86
2020/12/13 12:02:10;;;;;;;0.63;0.38;;;13.50;99.90;;;;;;5088006;28;20034;-85
2020/12/13 12:04:35;;;;;;;0.73;0.52;;;13.40;99.90;;;;;;5087651;28;20103;-83
2020/12/13 12:07:02;;;;;;;1.27;0.60;;;13.30;99.90;;;;;;5087641;28;20035;-84
2020/12/13 12:09:28;;;;;;;0.95;0.50;;;13.20;99.90;;;;;;5088782;28;20014;-85
2020/12/13 12:11:53;;;;;;;3.28;1.40;;;13.20;99.90;;;;;;5088577;28;20086;-86
2020/12/13 12:14:19;;;;;;;2.75;1.45;;;13.20;99.90;;;;;;5086886;28;20044;-86
2020/12/13 12:16:45;;;;;;;2.65;0.80;;;13.10;99.90;;;;;;5087787;28;20035;-84
2020/12/13 12:19:12;;;;;;;0.57;0.40;;;13.10;99.90;;;;;;5087559;28;20046;-84
2020/12/13 12:21:46;;;;;;;1.15;0.80;;;13.10;99.90;;;;;;5087906;28;20374;-85
2020/12/13 12:24:15;;;;;;;1.52;1.05;;;13.10;99.90;;;;;;5090039;28;20016;-86
2020/12/13 12:26:42;;;;;;;3.92;0.50;;;13.10;99.90;;;;;;5071167;28;20035;-85
2020/12/13 12:29:08;;;;;;;0.93;0.50;;;13.20;99.90;;;;;;5087191;28;20032;-85
2020/12/13 12:31:34;;;;;;;1.80;0.50;;;13.30;99.90;;;;;;5087712;28;20082;-86
2020/12/13 12:33:59;;;;;;;2.17;0.50;;;13.40;99.90;;;;;;5087435;28;20030;-85
2020/12/13 12:36:28;;;;;;;3.50;1.20;;;13.40;99.90;;;;;;5086978;28;20024;-85
2020/12/13 12:38:54;;;;;;;3.05;0.88;;;13.40;99.90;;;;;;5086889;28;20062;-67
2020/12/13 12:41:21;;;;;;;3.97;1.05;;;13.40;99.90;;;;;;5088129;28;20024;-86
2020/12/13 12:43:49;;;;;;;4.20;1.13;;;13.40;99.90;;;;;;5087765;28;20462;-86
2020/12/13 12:46:16;;;;;;;6.38;1.15;;;13.30;99.90;;;;;;5087264;28;20033;-85
2020/12/13 12:48:47;;;;;;;5.20;0.90;;;13.20;99.90;;;;;;5087157;28;20437;-84
2020/12/13 12:51:14;;;;;;;8.88;1.95;;;13.20;99.90;;;;;;5087801;28;20459;-86
2020/12/13 12:53:40;;;;;;;3.85;1.38;;;13.20;99.90;;;;;;5086780;28;20059;-85
2020/12/13 12:56:07;;;;;;;4.45;0.77;;;13.20;99.90;;;;;;5070001;28;20090;-85
2020/12/13 12:58:42;;;;;;;5.95;1.70;;;13.20;99.90;;;;;;5087409;28;20482;-84
2020/12/13 13:01:12;;;;;;;7.05;1.23;;;13.20;99.90;;;;;;5089222;28;20490;-85
2020/12/13 13:03:41;;;;;;;5.18;1.38;;;13.10;99.90;;;;;;5071050;28;20039;-86